Adams Basin, NY

2:23 AM EST on November 29, 2014 (GMT -0500)
Spencerport NY | Change Station
CLOSE
Current Station
Personal Weather Station
Location: Spencerport, NY
Elevation: 574 ft
Nearby Weather Stations

Elev 574 ft 43.18 °N, 77.80 °W | Updated 6 minutes ago

Overcast
Overcast
25.3 °F
Feels Like 25 °F
N
0.0
Wind Variable Wind from South
Gusts 5.0 mph

Today
High -- | Low -- °F
--% Chance of Precip.
Yesterday
High -- | Low -- °F
Precip. -- in
7:21 AM 4:37 PM
Waxing Crescent, 49% visible
Pressure 30.24 in
Visibility 10.0 miles
Clouds Overcast 2800 ft
Windchill 25 °F
Dew Point 21 °F
Humidity 83%
Rainfall 0.00 in
Snow Depth Not available.
UV 0 out of 12
Pollen .10 out of 12
Air Quality Not available.
Flu Activity Not available.
METAR KROC 290654Z 18004KT 10SM OVC028 M03/M07 A3021 RMK AO2 SLP240 T10331072

More Conditions Fewer Conditions

Pressure 30.24 in
Visibility 10.0 miles
Clouds Overcast 2800 ft
Windchill 25 °F
Dew Point 21 °F
Humidity 83%
Rainfall 0.00 in
Snow Depth Not available.
UV 0 out of 12
Pollen .10 out of 12
Air Quality Not available.
Flu Activity Not available.
METAR KROC 290654Z 18004KT 10SM OVC028 M03/M07 A3021 RMK AO2 SLP240 T10331072

More Conditions Fewer Conditions

10-Day Weather Forecast

Almanac

Astronomy

Nov. 29, 2014 Rise Set
Actual Time
Civil Twilight
Nautical Twilight
Astronomical Twilight
Moon
Length of Visible Light
Length of Day
Tomorrow will be .
, % of the Moon is Illuminated

Today's Extremes

State Highs State Lows

Community

WunderPhotos

Upload Photos

1,774,432 photos uploaded!

WunderBlogs® & News

Nearby

Air Quality

  Air Quality AQ Index Pollutant
Not available.

Snow Depth

Station Depth Elevation

Earthquake Activity

City Distance Mag. Time & Date
Minimum magnitude displayed is 2.5.

Coastal Water Temperatures

Place Temperature

Nearby Weather Stations